createdAt,value
2019-04-03T00:00:20.815Z,4.70
2019-04-03T00:02:49.224Z,3.80
2019-04-03T00:05:17.618Z,4.10
2019-04-03T00:07:48.992Z,4.37
2019-04-03T00:10:19.936Z,4.27
2019-04-03T00:12:51.298Z,4.53
2019-04-03T00:15:22.189Z,4.67
2019-04-03T00:17:53.429Z,4.30
2019-04-03T00:20:22.035Z,4.80
2019-04-03T00:22:52.034Z,4.23
2019-04-03T00:25:23.385Z,4.50
2019-04-03T00:27:54.480Z,4.43
2019-04-03T00:30:23.112Z,4.70
2019-04-03T00:32:54.177Z,4.40
2019-04-03T00:35:23.599Z,4.80
2019-04-03T00:37:54.935Z,4.50
2019-04-03T00:40:24.722Z,4.53
2019-04-03T00:42:54.750Z,4.87
2019-04-03T00:45:24.482Z,4.67
2019-04-03T00:47:55.787Z,4.60
2019-04-03T00:50:26.130Z,4.10
2019-04-03T00:52:58.721Z,4.30
2019-04-03T00:55:28.493Z,4.43
2019-04-03T00:57:56.963Z,5.50
2019-04-03T01:00:29.159Z,5.83
2019-04-03T01:02:58.852Z,5.47
2019-04-03T01:05:28.520Z,5.33
2019-04-03T01:08:00.881Z,6.40
2019-04-03T01:10:41.484Z,5.23
2019-04-03T01:13:10.244Z,5.10
2019-04-03T01:15:39.090Z,5.03
2019-04-03T01:18:10.393Z,4.60
2019-04-03T01:20:38.776Z,4.83
2019-04-03T01:23:07.695Z,4.47
2019-04-03T01:25:39.129Z,4.17
2019-04-03T01:28:09.790Z,4.67
2019-04-03T01:30:43.835Z,4.47
2019-04-03T01:33:19.197Z,4.33
2019-04-03T01:35:47.944Z,4.43
2019-04-03T01:38:19.474Z,4.73
2019-04-03T01:40:50.584Z,4.50
2019-04-03T01:43:19.121Z,4.73
2019-04-03T01:45:47.933Z,4.70
2019-04-03T01:48:18.289Z,4.97
2019-04-03T01:50:48.199Z,5.00
2019-04-03T01:53:19.274Z,4.60
2019-04-03T01:55:53.303Z,4.10
2019-04-03T01:58:21.677Z,4.53
2019-04-03T02:00:59.981Z,4.00
2019-04-03T02:03:32.146Z,4.47
2019-04-03T02:06:00.530Z,4.57
2019-04-03T02:08:29.230Z,4.70
2019-04-03T02:10:57.661Z,4.50
2019-04-03T02:13:32.002Z,4.77
2019-04-03T02:16:00.672Z,4.90
2019-04-03T02:18:30.677Z,4.80
2019-04-03T02:21:02.286Z,5.20
2019-04-03T02:23:31.218Z,5.37
2019-04-03T02:26:02.362Z,5.00
2019-04-03T02:28:30.999Z,4.97
2019-04-03T02:31:03.934Z,4.80
2019-04-03T02:33:32.308Z,4.93
2019-04-03T02:36:02.335Z,4.77
2019-04-03T02:38:33.559Z,5.73
2019-04-03T02:41:04.957Z,5.23
2019-04-03T02:43:38.264Z,5.30
2019-04-03T02:46:06.638Z,4.90
2019-04-03T02:48:38.793Z,4.97
2019-04-03T02:51:08.579Z,5.30
2019-04-03T02:53:36.990Z,5.00
2019-04-03T02:56:11.610Z,5.50
2019-04-03T02:58:41.454Z,5.50
2019-04-03T03:01:12.552Z,5.37
2019-04-03T03:03:42.529Z,5.13
2019-04-03T03:06:13.594Z,5.97
2019-04-03T03:08:43.404Z,5.43
2019-04-03T03:11:18.886Z,5.97
2019-04-03T03:13:51.244Z,5.37
2019-04-03T03:16:20.481Z,5.03
2019-04-03T03:18:53.463Z,5.47
2019-04-03T03:21:24.137Z,5.60
2019-04-03T03:23:55.200Z,5.20
2019-04-03T03:26:26.822Z,5.80
2019-04-03T03:29:14.220Z,5.57
2019-04-03T03:31:59.584Z,5.10
2019-04-03T03:34:06.851Z,5.73
2019-04-03T03:36:39.502Z,5.17
2019-04-03T03:39:12.138Z,4.80
2019-04-03T03:41:41.842Z,5.50
2019-04-03T03:44:14.264Z,5.30
2019-04-03T03:46:49.970Z,5.73
2019-04-03T03:49:20.383Z,5.53
2019-04-03T03:51:50.592Z,6.20
2019-04-03T03:54:20.570Z,5.33
2019-04-03T03:56:51.084Z,6.20
2019-04-03T03:59:23.098Z,5.80
2019-04-03T04:01:52.933Z,6.03
2019-04-03T04:04:22.074Z,6.20
2019-04-03T04:06:52.303Z,5.30
2019-04-03T04:09:20.684Z,6.13
2019-04-03T04:11:49.845Z,7.07
2019-04-03T04:14:22.839Z,6.23
2019-04-03T04:16:52.810Z,5.87
2019-04-03T04:19:22.488Z,6.20
2019-04-03T04:21:52.137Z,6.00
2019-04-03T04:24:21.170Z,6.80
2019-04-03T04:26:50.325Z,6.17
2019-04-03T04:29:24.197Z,6.70
2019-04-03T04:31:55.706Z,6.10
2019-04-03T04:34:30.481Z,6.23
2019-04-03T04:37:02.872Z,6.47
2019-04-03T04:39:40.017Z,6.37
2019-04-03T04:42:13.981Z,6.73
2019-04-03T04:44:42.369Z,7.10
2019-04-03T04:47:11.067Z,6.20
2019-04-03T04:49:39.460Z,6.93
2019-04-03T04:52:07.864Z,6.93
2019-04-03T04:54:36.778Z,6.23
2019-04-03T04:57:09.893Z,7.20
2019-04-03T04:59:45.170Z,6.57
2019-04-03T05:02:13.659Z,7.50
2019-04-03T05:04:45.596Z,7.67
2019-04-03T05:07:16.595Z,7.40
2019-04-03T05:09:44.638Z,6.77
2019-04-03T05:12:17.227Z,8.13
2019-04-03T05:14:48.935Z,7.43
2019-04-03T05:17:18.776Z,8.50
2019-04-03T05:19:48.986Z,7.30
2019-04-03T05:22:17.459Z,7.60
2019-04-03T05:24:47.497Z,8.27
2019-04-03T05:27:19.011Z,7.63
2019-04-03T05:29:53.193Z,8.00
2019-04-03T05:32:23.201Z,7.77
2019-04-03T05:34:51.592Z,7.30
2019-04-03T05:37:20.841Z,7.93
2019-04-03T05:39:54.745Z,7.17
2019-04-03T05:42:24.557Z,6.80
2019-04-03T05:44:57.257Z,6.67
2019-04-03T05:47:33.143Z,6.70
2019-04-03T05:50:01.525Z,7.53
2019-04-03T05:52:33.172Z,6.70
2019-04-03T05:55:03.326Z,6.27
2019-04-03T05:57:34.895Z,6.73
2019-04-03T06:00:07.588Z,6.77
2019-04-03T06:02:36.597Z,6.03
2019-04-03T06:05:11.473Z,6.23
2019-04-03T06:07:39.158Z,6.00
2019-04-03T06:10:10.693Z,6.27
2019-04-03T06:12:45.404Z,6.43
2019-04-03T06:15:16.273Z,5.37
2019-04-03T06:17:50.872Z,6.10
2019-04-03T06:20:21.016Z,6.00
2019-04-03T06:22:51.136Z,5.77
2019-04-03T06:25:21.971Z,5.40
2019-04-03T06:27:53.712Z,6.10
2019-04-03T06:30:28.349Z,6.53
2019-04-03T06:33:00.958Z,6.70
2019-04-03T06:35:28.732Z,6.77
2019-04-03T06:37:59.655Z,7.13
2019-04-03T06:40:28.769Z,7.03
2019-04-03T06:43:09.112Z,7.03
2019-04-03T06:45:37.497Z,6.70
2019-04-03T06:48:05.901Z,7.10
2019-04-03T06:50:37.205Z,7.30
2019-04-03T06:53:07.437Z,6.60
2019-04-03T06:55:39.257Z,6.83
2019-04-03T06:58:18.045Z,7.63
2019-04-03T07:00:54.359Z,7.13
2019-04-03T07:03:25.210Z,7.03
2019-04-03T07:05:59.430Z,6.77
2019-04-03T07:08:35.655Z,7.90
2019-04-03T07:11:02.472Z,7.43
2019-04-03T07:13:33.793Z,7.40
2019-04-03T07:16:04.078Z,6.90
2019-04-03T07:18:34.702Z,7.60
2019-04-03T07:21:05.097Z,7.30
2019-04-03T07:23:35.093Z,6.90
2019-04-03T07:26:05.221Z,6.90
2019-04-03T07:28:36.414Z,6.37
2019-04-03T07:31:07.857Z,6.80
2019-04-03T07:33:41.923Z,6.10
2019-04-03T07:36:13.444Z,5.70
2019-04-03T07:38:50.971Z,6.13
2019-04-03T07:41:22.054Z,4.93
2019-04-03T07:43:58.130Z,5.70
2019-04-03T07:46:26.548Z,5.80
2019-04-03T07:48:59.812Z,5.40
2019-04-03T07:51:31.393Z,4.90
2019-04-03T07:54:04.351Z,5.30
2019-04-03T07:56:31.789Z,5.00
2019-04-03T07:59:03.886Z,5.03
2019-04-03T08:01:34.781Z,4.57
2019-04-03T08:04:08.282Z,5.00
2019-04-03T08:06:36.670Z,4.93
2019-04-03T08:09:09.751Z,4.93
2019-04-03T08:11:40.621Z,5.07
2019-04-03T08:14:09.919Z,5.40
2019-04-03T08:16:42.823Z,6.90
2019-04-03T08:19:10.691Z,7.67
2019-04-03T08:21:42.750Z,7.43
2019-04-03T08:24:14.108Z,8.40
2019-04-03T08:26:42.535Z,8.03
2019-04-03T08:29:10.956Z,7.90
2019-04-03T08:31:42.739Z,7.63
2019-04-03T08:34:18.058Z,8.30
2019-04-03T08:36:48.740Z,8.27
2019-04-03T08:39:17.884Z,8.63
2019-04-03T08:41:47.910Z,9.07
2019-04-03T08:44:18.737Z,7.20
2019-04-03T08:46:50.086Z,3.90
2019-04-03T08:49:18.490Z,1.30
2019-04-03T08:51:46.865Z,0.93
2019-04-03T08:54:18.299Z,1.10
2019-04-03T08:56:48.643Z,0.93
2019-04-03T08:59:18.727Z,1.00
2019-04-03T09:01:47.104Z,1.10
2019-04-03T09:04:16.789Z,1.40
2019-04-03T09:06:45.593Z,1.30
2019-04-03T09:09:14.750Z,1.20
2019-04-03T09:11:50.146Z,1.53
2019-04-03T09:14:21.533Z,1.47
2019-04-03T09:16:53.094Z,1.93
2019-04-03T09:19:25.951Z,2.33
2019-04-03T09:21:57.706Z,1.97
2019-04-03T09:24:31.466Z,1.70
2019-04-03T09:27:08.232Z,1.80
2019-04-03T09:29:37.070Z,1.90
2019-04-03T09:32:08.241Z,2.50
2019-04-03T09:34:36.622Z,2.07
2019-04-03T09:37:06.430Z,2.37
2019-04-03T09:39:35.266Z,2.27
2019-04-03T09:42:05.085Z,2.00
2019-04-03T09:44:37.801Z,2.13
2019-04-03T09:47:06.377Z,1.50
2019-04-03T09:49:38.270Z,1.30
2019-04-03T09:52:12.841Z,1.30
2019-04-03T09:54:41.913Z,1.13
2019-04-03T09:57:10.874Z,1.00
2019-04-03T09:59:39.564Z,1.30
2019-04-03T10:02:11.609Z,1.00
2019-04-03T10:04:40.001Z,1.10
2019-04-03T10:07:11.157Z,0.90
2019-04-03T10:09:43.136Z,0.90
2019-04-03T10:12:10.869Z,1.20
2019-04-03T10:14:42.357Z,1.00
2019-04-03T10:17:10.754Z,0.93
2019-04-03T10:19:44.768Z,1.10
2019-04-03T10:22:12.209Z,0.97
2019-04-03T10:24:40.760Z,0.90
2019-04-03T10:27:24.514Z,0.90
2019-04-03T10:29:56.558Z,0.87
2019-04-03T10:32:27.706Z,0.80
2019-04-03T10:34:59.015Z,0.67
2019-04-03T10:37:27.985Z,0.60
2019-04-03T10:39:58.013Z,1.00
2019-04-03T10:42:32.638Z,0.73
2019-04-03T10:45:02.898Z,0.50
2019-04-03T10:47:41.170Z,0.60
2019-04-03T10:50:02.640Z,0.70
2019-04-03T10:52:37.172Z,0.70
2019-04-03T10:55:08.060Z,0.70
2019-04-03T10:57:41.136Z,0.50
2019-04-03T11:00:12.230Z,0.50
2019-04-03T11:02:40.861Z,0.60
2019-04-03T11:05:11.911Z,0.40
2019-04-03T11:07:40.362Z,0.40
2019-04-03T11:10:09.959Z,0.40
2019-04-03T11:12:53.348Z,0.40
2019-04-03T11:15:24.489Z,0.63
2019-04-03T11:17:58.916Z,0.50
2019-04-03T11:20:30.242Z,0.73
2019-04-03T11:23:06.304Z,0.60
2019-04-03T11:25:30.564Z,0.40
2019-04-03T11:28:05.164Z,0.50
2019-04-03T11:30:33.262Z,0.50
2019-04-03T11:33:04.815Z,0.40
2019-04-03T11:35:37.108Z,0.53
2019-04-03T11:38:14.139Z,0.43
2019-04-03T11:40:42.281Z,0.43
2019-04-03T11:43:10.934Z,0.60
2019-04-03T11:45:43.333Z,0.60
2019-04-03T11:48:12.730Z,0.50
2019-04-03T11:50:46.760Z,0.60
2019-04-03T11:53:15.891Z,0.47
2019-04-03T11:55:47.283Z,0.70
2019-04-03T11:58:20.709Z,0.70
2019-04-03T12:00:53.166Z,0.67
2019-04-03T12:03:31.104Z,0.60
2019-04-03T12:06:00.062Z,0.50
2019-04-03T12:08:34.337Z,0.60
2019-04-03T12:11:06.848Z,0.60
2019-04-03T12:13:46.294Z,0.60
2019-04-03T12:16:14.493Z,0.50
2019-04-03T12:18:42.884Z,0.47
2019-04-03T12:21:13.957Z,0.40
2019-04-03T12:23:41.389Z,0.50
2019-04-03T12:26:11.401Z,0.60
2019-04-03T12:28:43.154Z,0.57
2019-04-03T12:31:12.835Z,0.57
2019-04-03T12:33:51.983Z,0.80
2019-04-03T12:36:13.412Z,0.60
2019-04-03T12:38:41.434Z,0.60
2019-04-03T12:41:11.491Z,0.70
2019-04-03T12:43:42.853Z,0.60
2019-04-03T12:46:17.340Z,0.60
2019-04-03T12:48:46.566Z,0.70
2019-04-03T12:51:22.800Z,0.73
2019-04-03T12:53:52.051Z,1.00
2019-04-03T12:56:26.119Z,0.97
2019-04-03T12:58:57.663Z,0.73
2019-04-03T13:01:26.704Z,0.93
2019-04-03T13:03:56.357Z,1.00
2019-04-03T13:06:33.085Z,1.30
2019-04-03T13:09:01.770Z,1.20
2019-04-03T13:11:32.968Z,1.33
2019-04-03T13:14:05.365Z,1.70
2019-04-03T13:16:31.180Z,1.10
2019-04-03T13:19:05.697Z,1.10
2019-04-03T13:21:39.284Z,1.30
2019-04-03T13:24:06.886Z,1.33
2019-04-03T13:26:37.009Z,1.40
2019-04-03T13:29:08.585Z,1.40
2019-04-03T13:31:38.615Z,1.40
2019-04-03T13:34:31.550Z,1.40
2019-04-03T13:37:01.013Z,1.60
2019-04-03T13:39:35.473Z,1.30
2019-04-03T13:42:04.056Z,0.83
2019-04-03T13:44:34.561Z,1.30
2019-04-03T13:47:14.795Z,1.20
2019-04-03T13:49:44.250Z,1.10
2019-04-03T13:52:15.826Z,1.10
2019-04-03T13:54:45.476Z,0.90
2019-04-03T13:57:15.465Z,1.03
2019-04-03T13:59:48.262Z,1.27
2019-04-03T14:02:17.568Z,1.23
2019-04-03T14:04:51.300Z,1.07
2019-04-03T14:07:21.333Z,1.03
2019-04-03T14:09:53.762Z,1.07
2019-04-03T14:12:24.748Z,1.20
2019-04-03T14:14:56.283Z,1.30
2019-04-03T14:17:28.236Z,1.20
2019-04-03T14:19:57.275Z,1.00
2019-04-03T14:22:27.299Z,1.30
2019-04-03T14:25:08.316Z,1.50
2019-04-03T14:27:40.681Z,1.20
2019-04-03T14:30:12.032Z,1.40
2019-04-03T14:32:42.150Z,1.50
2019-04-03T14:35:41.987Z,1.57
2019-04-03T14:37:49.936Z,1.87
2019-04-03T14:40:21.099Z,1.50
2019-04-03T14:42:50.806Z,1.60
2019-04-03T14:45:20.001Z,1.60
2019-04-03T14:47:54.187Z,1.53
2019-04-03T14:50:27.341Z,1.80
2019-04-03T14:52:58.638Z,2.20
2019-04-03T14:55:30.032Z,2.27
2019-04-03T14:58:01.255Z,2.13
2019-04-03T15:00:35.811Z,2.47
2019-04-03T15:03:04.840Z,2.27
2019-04-03T15:05:40.324Z,2.57
2019-04-03T15:08:12.001Z,2.20
2019-04-03T15:10:40.630Z,2.60
2019-04-03T15:13:14.068Z,2.40
2019-04-03T15:15:41.724Z,2.30
2019-04-03T15:18:10.784Z,2.70
2019-04-03T15:20:40.503Z,2.50
2019-04-03T15:23:20.927Z,3.00
2019-04-03T15:25:52.291Z,2.50
2019-04-03T15:28:20.047Z,2.93
2019-04-03T15:30:51.527Z,3.10
2019-04-03T15:33:24.349Z,3.33
2019-04-03T15:35:56.934Z,3.57
2019-04-03T15:38:28.004Z,3.50
2019-04-03T15:40:58.647Z,2.97
2019-04-03T15:43:29.364Z,3.90
2019-04-03T15:45:58.590Z,3.53
2019-04-03T15:48:32.371Z,3.97
2019-04-03T15:51:11.203Z,4.53
2019-04-03T15:53:31.372Z,3.93
2019-04-03T15:56:00.506Z,4.27
2019-04-03T15:58:30.804Z,4.60
2019-04-03T16:01:02.879Z,3.57
2019-04-03T16:03:42.088Z,2.40
2019-04-03T16:06:11.950Z,2.40
2019-04-03T16:08:43.629Z,2.23
2019-04-03T16:11:13.735Z,2.20
2019-04-03T16:13:47.175Z,1.90
2019-04-03T16:16:15.641Z,1.60
2019-04-03T16:18:46.945Z,1.43
2019-04-03T16:21:22.390Z,1.40
2019-04-03T16:23:48.445Z,1.50
2019-04-03T16:26:18.472Z,1.33
2019-04-03T16:28:49.831Z,1.10
2019-04-03T16:31:20.554Z,1.17
2019-04-03T16:33:51.165Z,1.17
2019-04-03T16:36:21.222Z,1.30
2019-04-03T16:38:49.999Z,1.30
2019-04-03T16:41:19.335Z,1.13
2019-04-03T16:43:52.834Z,1.10
2019-04-03T16:46:30.837Z,1.20
2019-04-03T16:49:00.029Z,1.83
2019-04-03T16:51:33.357Z,2.07
2019-04-03T16:54:05.488Z,1.60
2019-04-03T16:56:38.645Z,1.30
2019-04-03T16:59:07.452Z,1.40
2019-04-03T17:01:37.352Z,1.10
2019-04-03T17:04:08.815Z,0.90
2019-04-03T17:06:39.604Z,1.00
2019-04-03T17:09:11.447Z,0.97
2019-04-03T17:11:43.521Z,1.10
2019-04-03T17:14:13.025Z,1.37
2019-04-03T17:16:41.477Z,1.47
2019-04-03T17:19:09.871Z,1.50
2019-04-03T17:21:39.575Z,1.70
2019-04-03T17:24:10.863Z,1.30
2019-04-03T17:26:51.286Z,1.20
2019-04-03T17:29:15.034Z,1.37
2019-04-03T17:31:44.559Z,1.60
2019-04-03T17:34:16.057Z,1.60
2019-04-03T17:36:44.460Z,1.90
2019-04-03T17:39:16.809Z,1.50
2019-04-03T17:41:48.732Z,2.10
2019-04-03T17:44:19.785Z,2.10
2019-04-03T17:46:49.433Z,2.70
2019-04-03T17:49:24.422Z,2.70
2019-04-03T17:51:51.743Z,2.30
2019-04-03T17:54:24.705Z,2.50
2019-04-03T17:56:54.729Z,2.30
2019-04-03T17:59:23.113Z,1.90
2019-04-03T18:01:54.365Z,2.20
2019-04-03T18:04:25.407Z,1.93
2019-04-03T18:07:00.457Z,2.10
2019-04-03T18:09:29.708Z,1.90
2019-04-03T18:12:02.306Z,2.30
2019-04-03T18:14:30.699Z,2.20
2019-04-03T18:17:02.043Z,2.03
2019-04-03T18:19:37.685Z,2.43
2019-04-03T18:22:06.689Z,2.60
2019-04-03T18:24:35.073Z,2.60
2019-04-03T18:27:06.439Z,2.33
2019-04-03T18:29:41.274Z,2.03
2019-04-03T18:32:09.663Z,2.40
2019-04-03T18:34:40.345Z,2.10
2019-04-03T18:37:10.385Z,2.27
2019-04-03T18:39:40.314Z,2.53
2019-04-03T18:42:18.630Z,2.40
2019-04-03T18:44:49.559Z,2.67
2019-04-03T18:47:18.202Z,2.80
2019-04-03T18:49:46.584Z,3.00
2019-04-03T18:52:20.541Z,2.80
2019-04-03T18:54:51.805Z,3.20
2019-04-03T18:57:23.013Z,2.90
2019-04-03T19:00:00.329Z,3.20
2019-04-03T19:02:27.409Z,3.40
2019-04-03T19:05:18.166Z,3.20
2019-04-03T19:07:51.925Z,3.13
2019-04-03T19:10:26.426Z,2.83
2019-04-03T19:12:57.796Z,3.20
2019-04-03T19:15:26.217Z,3.10
2019-04-03T19:18:00.446Z,2.77
2019-04-03T19:20:27.583Z,3.40
2019-04-03T19:23:02.890Z,2.80
2019-04-03T19:25:29.646Z,2.70
2019-04-03T19:28:04.811Z,2.70
2019-04-03T19:30:36.085Z,3.17
2019-04-03T19:33:08.666Z,3.00
2019-04-03T19:35:45.793Z,2.87
2019-04-03T19:38:15.709Z,2.70
2019-04-03T19:40:44.098Z,3.00
2019-04-03T19:43:14.916Z,2.93
2019-04-03T19:45:51.436Z,3.33
2019-04-03T19:48:20.658Z,3.70
2019-04-03T19:50:57.708Z,3.00
2019-04-03T19:53:29.038Z,2.57
2019-04-03T19:55:59.065Z,2.00
2019-04-03T19:58:29.721Z,1.50
2019-04-03T20:01:03.442Z,1.90
2019-04-03T20:03:31.239Z,1.10
2019-04-03T20:06:02.428Z,0.90
2019-04-03T20:08:33.701Z,0.70
2019-04-03T20:11:03.049Z,0.70
2019-04-03T20:13:32.831Z,0.77
2019-04-03T20:16:04.345Z,0.80
2019-04-03T20:18:41.242Z,1.00
2019-04-03T20:21:11.257Z,0.93
2019-04-03T20:23:41.581Z,1.13
2019-04-03T20:26:11.418Z,1.53
2019-04-03T20:28:39.789Z,1.53
2019-04-03T20:31:11.074Z,1.50
2019-04-03T20:33:42.108Z,1.53
2019-04-03T20:36:12.516Z,1.43
2019-04-03T20:38:40.899Z,1.40
2019-04-03T20:41:12.479Z,1.60
2019-04-03T20:43:42.742Z,1.80
2019-04-03T20:46:11.271Z,1.53
2019-04-03T20:48:41.336Z,1.73
2019-04-03T20:51:14.066Z,1.90
2019-04-03T20:53:42.458Z,1.90
2019-04-03T20:56:12.488Z,1.90
2019-04-03T20:58:55.143Z,2.10
2019-04-03T21:01:15.301Z,1.90
2019-04-03T21:03:46.399Z,1.70
2019-04-03T21:06:20.317Z,1.80
2019-04-03T21:08:47.793Z,1.60
2019-04-03T21:11:16.174Z,1.87
2019-04-03T21:13:49.165Z,2.30
2019-04-03T21:16:32.577Z,1.80
2019-04-03T21:18:51.427Z,2.17
2019-04-03T21:21:25.410Z,1.60
2019-04-03T21:23:53.721Z,1.83
2019-04-03T21:26:22.108Z,1.60
2019-04-03T21:28:50.474Z,1.80
2019-04-03T21:31:18.875Z,1.80
2019-04-03T21:33:50.261Z,2.00
2019-04-03T21:36:21.361Z,1.83
2019-04-03T21:38:49.740Z,1.90
2019-04-03T21:41:20.457Z,2.20
2019-04-03T21:43:59.580Z,2.10
2019-04-03T21:46:28.227Z,2.10
2019-04-03T21:49:00.933Z,2.07
2019-04-03T21:51:29.325Z,1.77
2019-04-03T21:53:57.709Z,1.80
2019-04-03T21:56:26.093Z,1.80
2019-04-03T21:58:54.469Z,1.77
2019-04-03T22:01:26.745Z,1.73
2019-04-03T22:03:56.961Z,1.70
2019-04-03T22:06:27.795Z,1.83
2019-04-03T22:09:04.228Z,2.20
2019-04-03T22:11:34.667Z,2.20
2019-04-03T22:14:05.828Z,2.23
2019-04-03T22:16:34.225Z,2.30
2019-04-03T22:19:05.399Z,3.40
2019-04-03T22:21:39.181Z,3.77
2019-04-03T22:24:10.509Z,4.07
2019-04-03T22:26:40.810Z,4.33
2019-04-03T22:29:15.852Z,4.63
2019-04-03T22:31:47.181Z,4.93
2019-04-03T22:34:22.901Z,4.47
2019-04-03T22:37:04.556Z,4.60
2019-04-03T22:39:33.557Z,4.63
2019-04-03T22:42:04.865Z,4.97
2019-04-03T22:44:33.497Z,5.17
2019-04-03T22:47:01.877Z,5.10
2019-04-03T22:49:34.682Z,5.27
2019-04-03T22:52:03.087Z,5.80
2019-04-03T22:54:34.171Z,6.00
2019-04-03T22:57:07.313Z,6.70
2019-04-03T22:59:38.721Z,6.77
2019-04-03T23:02:07.101Z,6.67
2019-04-03T23:04:46.161Z,7.23
2019-04-03T23:07:13.353Z,7.20
2019-04-03T23:09:46.336Z,7.03
2019-04-03T23:12:17.936Z,7.80
2019-04-03T23:14:46.322Z,9.07
2019-04-03T23:17:16.342Z,9.20
2019-04-03T23:19:47.013Z,9.63
2019-04-03T23:22:15.472Z,10.87
2019-04-03T23:24:43.865Z,10.70
2019-04-03T23:27:12.253Z,10.50
2019-04-03T23:29:45.257Z,10.73
2019-04-03T23:32:15.300Z,10.40
2019-04-03T23:34:45.397Z,10.93
2019-04-03T23:37:19.865Z,11.23
2019-04-03T23:39:48.255Z,11.63
2019-04-03T23:42:16.741Z,12.63
2019-04-03T23:44:45.129Z,13.10
2019-04-03T23:47:16.351Z,13.67
2019-04-03T23:49:45.451Z,13.20
2019-04-03T23:52:16.705Z,14.80
2019-04-03T23:54:47.858Z,15.00
2019-04-03T23:57:17.873Z,15.43
2019-04-03T23:59:51.630Z,16.60
